sensor_id;sensor_type;location;lat;lon;timestamp;temperature;humidity
52321;DHT22;38261;54.090;13.382;2023-02-28T00:00:51;-1.90;99.90
52321;DHT22;38261;54.090;13.382;2023-02-28T00:02:13;-1.90;99.90
52321;DHT22;38261;54.090;13.382;2023-02-28T00:03:36;-1.90;99.90
52321;DHT22;38261;54.090;13.382;2023-02-28T00:04:58;-1.90;99.90
52321;DHT22;38261;54.090;13.382;2023-02-28T00:06:23;-1.90;99.90
52321;DHT22;38261;54.090;13.382;2023-02-28T00:07:46;-2.00;99.90
52321;DHT22;38261;54.090;13.382;2023-02-28T00:09:08;-1.90;99.90
52321;DHT22;38261;54.090;13.382;2023-02-28T00:10:31;-2.00;99.90
52321;DHT22;38261;54.090;13.382;2023-02-28T00:11:53;-2.00;99.90
52321;DHT22;38261;54.090;13.382;2023-02-28T00:13:15;-2.00;99.90
52321;DHT22;38261;54.090;13.382;2023-02-28T00:14:38;-2.00;99.90
52321;DHT22;38261;54.090;13.382;2023-02-28T00:16:08;-2.00;99.90
52321;DHT22;38261;54.090;13.382;2023-02-28T00:17:31;-2.00;99.90
52321;DHT22;38261;54.090;13.382;2023-02-28T00:18:53;-2.00;99.90
52321;DHT22;38261;54.090;13.382;2023-02-28T00:20:15;-2.00;99.90
52321;DHT22;38261;54.090;13.382;2023-02-28T00:21:38;-2.00;99.90
52321;DHT22;38261;54.090;13.382;2023-02-28T00:23:02;-2.00;99.90
52321;DHT22;38261;54.090;13.382;2023-02-28T00:24:24;-2.00;99.90
52321;DHT22;38261;54.090;13.382;2023-02-28T00:25:46;-2.00;99.90
52321;DHT22;38261;54.090;13.382;2023-02-28T00:27:09;-2.10;99.90
52321;DHT22;38261;54.090;13.382;2023-02-28T00:28:31;-2.10;99.90
52321;DHT22;38261;54.090;13.382;2023-02-28T00:29:53;-2.00;99.90
52321;DHT22;38261;54.090;13.382;2023-02-28T00:31:16;-2.10;99.90
52321;DHT22;38261;54.090;13.382;2023-02-28T00:32:38;-2.10;99.90
52321;DHT22;38261;54.090;13.382;2023-02-28T00:34:00;-2.10;99.90
52321;DHT22;38261;54.090;13.382;2023-02-28T00:35:22;-2.10;99.90
52321;DHT22;38261;54.090;13.382;2023-02-28T00:36:45;-2.10;99.90
52321;DHT22;38261;54.090;13.382;2023-02-28T00:38:10;-2.10;99.90
52321;DHT22;38261;54.090;13.382;2023-02-28T00:39:37;-2.10;99.90
52321;DHT22;38261;54.090;13.382;2023-02-28T00:40:59;-2.10;99.90
52321;DHT22;38261;54.090;13.382;2023-02-28T00:42:26;-2.10;99.90
52321;DHT22;38261;54.090;13.382;2023-02-28T00:43:48;-2.20;99.90
52321;DHT22;38261;54.090;13.382;2023-02-28T00:45:10;-2.20;99.90
52321;DHT22;38261;54.090;13.382;2023-02-28T00:46:33;-2.20;99.90
52321;DHT22;38261;54.090;13.382;2023-02-28T00:47:55;-2.20;99.90
52321;DHT22;38261;54.090;13.382;2023-02-28T00:49:17;-2.20;99.90
52321;DHT22;38261;54.090;13.382;2023-02-28T00:50:39;-2.20;99.90
52321;DHT22;38261;54.090;13.382;2023-02-28T00:52:02;-2.20;99.90
52321;DHT22;38261;54.090;13.382;2023-02-28T00:53:24;-2.20;99.90
52321;DHT22;38261;54.090;13.382;2023-02-28T00:54:46;-2.20;99.90
52321;DHT22;38261;54.090;13.382;2023-02-28T00:56:08;-2.20;99.90
52321;DHT22;38261;54.090;13.382;2023-02-28T00:57:30;-2.20;99.90
52321;DHT22;38261;54.090;13.382;2023-02-28T00:58:52;-2.20;99.90
52321;DHT22;38261;54.090;13.382;2023-02-28T01:00:14;-2.20;99.90
52321;DHT22;38261;54.090;13.382;2023-02-28T01:01:37;-2.20;99.90
52321;DHT22;38261;54.090;13.382;2023-02-28T01:02:59;-2.30;99.90
52321;DHT22;38261;54.090;13.382;2023-02-28T01:04:21;-2.30;99.90
52321;DHT22;38261;54.090;13.382;2023-02-28T01:05:43;-2.30;99.90
52321;DHT22;38261;54.090;13.382;2023-02-28T01:07:06;-2.30;99.90
52321;DHT22;38261;54.090;13.382;2023-02-28T01:08:28;-2.30;99.90
52321;DHT22;38261;54.090;13.382;2023-02-28T01:09:50;-2.30;99.90
52321;DHT22;38261;54.090;13.382;2023-02-28T01:11:15;-2.40;99.90
52321;DHT22;38261;54.090;13.382;2023-02-28T01:12:38;-2.40;99.90
52321;DHT22;38261;54.090;13.382;2023-02-28T01:14:00;-2.40;99.90
52321;DHT22;38261;54.090;13.382;2023-02-28T01:15:22;-2.40;99.90
52321;DHT22;38261;54.090;13.382;2023-02-28T01:16:44;-2.40;99.90
52321;DHT22;38261;54.090;13.382;2023-02-28T01:18:06;-2.40;99.90
52321;DHT22;38261;54.090;13.382;2023-02-28T01:19:28;-2.40;99.90
52321;DHT22;38261;54.090;13.382;2023-02-28T01:20:50;-2.40;99.90
52321;DHT22;38261;54.090;13.382;2023-02-28T01:22:14;-2.40;99.90
52321;DHT22;38261;54.090;13.382;2023-02-28T01:23:36;-2.40;99.90
52321;DHT22;38261;54.090;13.382;2023-02-28T01:24:58;-2.40;99.90
52321;DHT22;38261;54.090;13.382;2023-02-28T01:26:21;-2.40;99.90
52321;DHT22;38261;54.090;13.382;2023-02-28T01:27:44;-2.50;99.90
52321;DHT22;38261;54.090;13.382;2023-02-28T01:29:06;-2.50;99.90
52321;DHT22;38261;54.090;13.382;2023-02-28T01:30:28;-2.50;99.90
52321;DHT22;38261;54.090;13.382;2023-02-28T01:31:50;-2.50;99.90
52321;DHT22;38261;54.090;13.382;2023-02-28T01:33:12;-2.50;99.90
52321;DHT22;38261;54.090;13.382;2023-02-28T01:34:34;-2.50;99.90
52321;DHT22;38261;54.090;13.382;2023-02-28T01:36:05;-2.50;99.90
52321;DHT22;38261;54.090;13.382;2023-02-28T01:37:28;-2.50;99.90
52321;DHT22;38261;54.090;13.382;2023-02-28T01:38:50;-2.50;99.90
52321;DHT22;38261;54.090;13.382;2023-02-28T01:40:13;-2.40;99.90
52321;DHT22;38261;54.090;13.382;2023-02-28T01:41:35;-2.60;99.90
52321;DHT22;38261;54.090;13.382;2023-02-28T01:42:57;-2.60;99.90
52321;DHT22;38261;54.090;13.382;2023-02-28T01:46:20;-2.60;99.90
52321;DHT22;38261;54.090;13.382;2023-02-28T01:47:43;-2.60;99.90
52321;DHT22;38261;54.090;13.382;2023-02-28T01:49:16;-2.60;99.90
52321;DHT22;38261;54.090;13.382;2023-02-28T01:50:41;-2.60;99.90
52321;DHT22;38261;54.090;13.382;2023-02-28T01:52:05;-2.60;99.90
52321;DHT22;38261;54.090;13.382;2023-02-28T01:53:42;-2.60;99.90
52321;DHT22;38261;54.090;13.382;2023-02-28T01:55:07;-2.60;99.90
52321;DHT22;38261;54.090;13.382;2023-02-28T01:56:33;-2.60;99.90
52321;DHT22;38261;54.090;13.382;2023-02-28T01:58:00;-2.70;99.90
52321;DHT22;38261;54.090;13.382;2023-02-28T02:00:03;-2.70;99.90
52321;DHT22;38261;54.090;13.382;2023-02-28T02:01:27;-2.70;99.90
52321;DHT22;38261;54.090;13.382;2023-02-28T02:02:54;-2.70;99.90
52321;DHT22;38261;54.090;13.382;2023-02-28T02:04:17;-2.70;99.90
52321;DHT22;38261;54.090;13.382;2023-02-28T02:05:41;-2.70;99.90
52321;DHT22;38261;54.090;13.382;2023-02-28T02:07:04;-2.70;99.90
52321;DHT22;38261;54.090;13.382;2023-02-28T02:08:28;-2.80;99.90
52321;DHT22;38261;54.090;13.382;2023-02-28T02:10:00;-2.80;99.90
52321;DHT22;38261;54.090;13.382;2023-02-28T02:11:24;-2.70;99.90
52321;DHT22;38261;54.090;13.382;2023-02-28T02:17:39;-2.80;99.90
52321;DHT22;38261;54.090;13.382;2023-02-28T02:22:49;-2.70;99.90
52321;DHT22;38261;54.090;13.382;2023-02-28T02:27:57;-2.80;99.90
52321;DHT22;38261;54.090;13.382;2023-02-28T02:34:46;-2.80;99.90
52321;DHT22;38261;54.090;13.382;2023-02-28T02:40:57;-2.90;99.90
52321;DHT22;38261;54.090;13.382;2023-02-28T02:42:31;-2.90;99.90
52321;DHT22;38261;54.090;13.382;2023-02-28T02:44:01;-2.90;99.90
52321;DHT22;38261;54.090;13.382;2023-02-28T02:45:49;-2.90;99.90
52321;DHT22;38261;54.090;13.382;2023-02-28T02:47:19;-2.90;99.90
52321;DHT22;38261;54.090;13.382;2023-02-28T02:48:44;-2.90;99.90
52321;DHT22;38261;54.090;13.382;2023-02-28T02:50:13;-3.00;99.90
52321;DHT22;38261;54.090;13.382;2023-02-28T02:51:36;-3.00;99.90
52321;DHT22;38261;54.090;13.382;2023-02-28T02:53:00;-3.00;99.90
52321;DHT22;38261;54.090;13.382;2023-02-28T02:54:28;-3.00;99.90
52321;DHT22;38261;54.090;13.382;2023-02-28T02:55:52;-3.00;99.90
52321;DHT22;38261;54.090;13.382;2023-02-28T02:57:24;-3.00;99.90
52321;DHT22;38261;54.090;13.382;2023-02-28T02:58:49;-3.00;99.90
52321;DHT22;38261;54.090;13.382;2023-02-28T03:00:15;-3.00;99.90
52321;DHT22;38261;54.090;13.382;2023-02-28T03:01:39;-3.00;99.90
52321;DHT22;38261;54.090;13.382;2023-02-28T03:03:03;-3.10;99.90
52321;DHT22;38261;54.090;13.382;2023-02-28T03:04:30;-3.10;99.90
52321;DHT22;38261;54.090;13.382;2023-02-28T03:05:56;-3.10;99.90
52321;DHT22;38261;54.090;13.382;2023-02-28T03:07:18;-3.10;99.90
52321;DHT22;38261;54.090;13.382;2023-02-28T03:08:41;-3.10;99.90
52321;DHT22;38261;54.090;13.382;2023-02-28T03:10:25;-3.10;99.90
52321;DHT22;38261;54.090;13.382;2023-02-28T03:11:45;-3.00;99.90
52321;DHT22;38261;54.090;13.382;2023-02-28T03:15:31;-3.00;99.90
52321;DHT22;38261;54.090;13.382;2023-02-28T03:17:18;-3.00;99.90
52321;DHT22;38261;54.090;13.382;2023-02-28T03:23:55;-3.10;99.90
52321;DHT22;38261;54.090;13.382;2023-02-28T03:25:29;-3.10;99.90
52321;DHT22;38261;54.090;13.382;2023-02-28T03:27:06;-3.10;99.90
52321;DHT22;38261;54.090;13.382;2023-02-28T03:30:19;-3.10;99.90
52321;DHT22;38261;54.090;13.382;2023-02-28T03:33:17;-3.10;99.90
52321;DHT22;38261;54.090;13.382;2023-02-28T03:36:41;-3.10;99.90
52321;DHT22;38261;54.090;13.382;2023-02-28T03:39:43;-3.10;99.90
52321;DHT22;38261;54.090;13.382;2023-02-28T03:42:43;-3.20;99.90
52321;DHT22;38261;54.090;13.382;2023-02-28T03:44:11;-3.20;99.90
52321;DHT22;38261;54.090;13.382;2023-02-28T03:45:39;-3.20;99.90
52321;DHT22;38261;54.090;13.382;2023-02-28T03:47:07;-3.20;99.90
52321;DHT22;38261;54.090;13.382;2023-02-28T03:48:39;-3.20;99.90
52321;DHT22;38261;54.090;13.382;2023-02-28T03:50:21;-3.20;99.90
52321;DHT22;38261;54.090;13.382;2023-02-28T03:51:45;-3.20;99.90
52321;DHT22;38261;54.090;13.382;2023-02-28T03:53:17;-3.20;99.90
52321;DHT22;38261;54.090;13.382;2023-02-28T03:54:53;-3.20;99.90
52321;DHT22;38261;54.090;13.382;2023-02-28T03:56:27;-3.20;99.90
52321;DHT22;38261;54.090;13.382;2023-02-28T03:58:01;-3.20;99.90
52321;DHT22;38261;54.090;13.382;2023-02-28T04:01:10;-3.20;99.90
52321;DHT22;38261;54.090;13.382;2023-02-28T04:02:34;-3.30;99.90
52321;DHT22;38261;54.090;13.382;2023-02-28T04:03:56;-3.30;99.90
52321;DHT22;38261;54.090;13.382;2023-02-28T04:05:20;-3.30;99.90
52321;DHT22;38261;54.090;13.382;2023-02-28T04:06:43;-3.30;99.90
52321;DHT22;38261;54.090;13.382;2023-02-28T04:08:06;-3.30;99.90
52321;DHT22;38261;54.090;13.382;2023-02-28T04:09:29;-3.30;99.90
52321;DHT22;38261;54.090;13.382;2023-02-28T04:11:22;-3.30;99.90
52321;DHT22;38261;54.090;13.382;2023-02-28T04:12:45;-3.30;99.90
52321;DHT22;38261;54.090;13.382;2023-02-28T04:14:07;-3.30;99.90
52321;DHT22;38261;54.090;13.382;2023-02-28T04:15:30;-3.30;99.90
52321;DHT22;38261;54.090;13.382;2023-02-28T04:16:53;-3.30;99.90
52321;DHT22;38261;54.090;13.382;2023-02-28T04:18:15;-3.40;99.90
52321;DHT22;38261;54.090;13.382;2023-02-28T04:19:37;-3.40;99.90
52321;DHT22;38261;54.090;13.382;2023-02-28T04:21:00;-3.40;99.90
52321;DHT22;38261;54.090;13.382;2023-02-28T04:22:22;-3.40;99.90
52321;DHT22;38261;54.090;13.382;2023-02-28T04:23:47;-3.40;99.90
52321;DHT22;38261;54.090;13.382;2023-02-28T04:25:09;-3.40;99.90
52321;DHT22;38261;54.090;13.382;2023-02-28T04:26:33;-3.40;99.90
52321;DHT22;38261;54.090;13.382;2023-02-28T04:27:55;-3.40;99.90
52321;DHT22;38261;54.090;13.382;2023-02-28T04:29:26;-3.30;99.90
52321;DHT22;38261;54.090;13.382;2023-02-28T04:30:58;-3.40;99.90
52321;DHT22;38261;54.090;13.382;2023-02-28T04:32:20;-3.40;99.90
52321;DHT22;38261;54.090;13.382;2023-02-28T04:33:43;-3.40;99.90
52321;DHT22;38261;54.090;13.382;2023-02-28T04:35:05;-3.40;99.90
52321;DHT22;38261;54.090;13.382;2023-02-28T04:36:28;-3.40;99.90
52321;DHT22;38261;54.090;13.382;2023-02-28T04:37:50;-3.40;99.90
52321;DHT22;38261;54.090;13.382;2023-02-28T04:39:12;-3.40;99.90
52321;DHT22;38261;54.090;13.382;2023-02-28T04:40:35;-3.40;99.90
52321;DHT22;38261;54.090;13.382;2023-02-28T04:41:57;-3.40;99.90
52321;DHT22;38261;54.090;13.382;2023-02-28T04:43:19;-3.40;99.90
52321;DHT22;38261;54.090;13.382;2023-02-28T04:44:41;-3.40;99.90
52321;DHT22;38261;54.090;13.382;2023-02-28T04:46:04;-3.40;99.90
52321;DHT22;38261;54.090;13.382;2023-02-28T04:47:27;-3.40;99.90
52321;DHT22;38261;54.090;13.382;2023-02-28T04:48:49;-3.50;99.90
52321;DHT22;38261;54.090;13.382;2023-02-28T04:50:11;-3.50;99.90
52321;DHT22;38261;54.090;13.382;2023-02-28T04:51:33;-3.50;99.90
52321;DHT22;38261;54.090;13.382;2023-02-28T04:52:56;-3.50;99.90
52321;DHT22;38261;54.090;13.382;2023-02-28T04:54:18;-3.50;99.90
52321;DHT22;38261;54.090;13.382;2023-02-28T04:55:40;-3.50;99.90
52321;DHT22;38261;54.090;13.382;2023-02-28T04:57:02;-3.50;99.90
52321;DHT22;38261;54.090;13.382;2023-02-28T04:58:26;-3.50;99.90
52321;DHT22;38261;54.090;13.382;2023-02-28T04:59:49;-3.50;99.90
52321;DHT22;38261;54.090;13.382;2023-02-28T05:01:38;-3.50;99.90
52321;DHT22;38261;54.090;13.382;2023-02-28T05:03:00;-3.50;99.90
52321;DHT22;38261;54.090;13.382;2023-02-28T05:04:22;-3.60;99.90
52321;DHT22;38261;54.090;13.382;2023-02-28T05:05:44;-3.60;99.90
52321;DHT22;38261;54.090;13.382;2023-02-28T05:07:06;-3.60;99.90
52321;DHT22;38261;54.090;13.382;2023-02-28T05:08:28;-3.60;99.90
52321;DHT22;38261;54.090;13.382;2023-02-28T05:09:52;-3.60;99.90
52321;DHT22;38261;54.090;13.382;2023-02-28T05:11:27;-3.60;99.90
52321;DHT22;38261;54.090;13.382;2023-02-28T05:12:51;-3.60;99.90
52321;DHT22;38261;54.090;13.382;2023-02-28T05:14:14;-3.50;99.90
52321;DHT22;38261;54.090;13.382;2023-02-28T05:15:36;-3.60;99.90
52321;DHT22;38261;54.090;13.382;2023-02-28T05:16:58;-3.60;99.90
52321;DHT22;38261;54.090;13.382;2023-02-28T05:18:20;-3.60;99.90
52321;DHT22;38261;54.090;13.382;2023-02-28T05:19:42;-3.60;99.90
52321;DHT22;38261;54.090;13.382;2023-02-28T05:21:04;-3.60;99.90
52321;DHT22;38261;54.090;13.382;2023-02-28T05:22:26;-3.60;99.90
52321;DHT22;38261;54.090;13.382;2023-02-28T05:23:48;-3.60;99.90
52321;DHT22;38261;54.090;13.382;2023-02-28T05:25:13;-3.60;99.90
52321;DHT22;38261;54.090;13.382;2023-02-28T05:26:40;-3.70;99.90
52321;DHT22;38261;54.090;13.382;2023-02-28T05:28:03;-3.70;99.90
52321;DHT22;38261;54.090;13.382;2023-02-28T05:29:25;-3.70;99.90
52321;DHT22;38261;54.090;13.382;2023-02-28T05:30:48;-3.70;99.90
52321;DHT22;38261;54.090;13.382;2023-02-28T05:32:11;-3.70;99.90
52321;DHT22;38261;54.090;13.382;2023-02-28T05:33:33;-3.60;99.90
52321;DHT22;38261;54.090;13.382;2023-02-28T05:34:55;-3.60;99.90
52321;DHT22;38261;54.090;13.382;2023-02-28T05:36:17;-3.70;99.90
52321;DHT22;38261;54.090;13.382;2023-02-28T05:37:40;-3.60;99.90
52321;DHT22;38261;54.090;13.382;2023-02-28T05:39:02;-3.70;99.90
52321;DHT22;38261;54.090;13.382;2023-02-28T05:40:25;-3.60;99.90
52321;DHT22;38261;54.090;13.382;2023-02-28T05:41:47;-3.60;99.90
52321;DHT22;38261;54.090;13.382;2023-02-28T05:43:10;-3.60;99.90
52321;DHT22;38261;54.090;13.382;2023-02-28T05:44:33;-3.60;99.90
52321;DHT22;38261;54.090;13.382;2023-02-28T05:45:55;-3.60;99.90
52321;DHT22;38261;54.090;13.382;2023-02-28T05:47:17;-3.60;99.90
52321;DHT22;38261;54.090;13.382;2023-02-28T05:48:41;-3.60;99.90
52321;DHT22;38261;54.090;13.382;2023-02-28T05:50:04;-3.60;99.90
52321;DHT22;38261;54.090;13.382;2023-02-28T05:51:27;-3.60;99.90
52321;DHT22;38261;54.090;13.382;2023-02-28T05:52:52;-3.60;99.90
52321;DHT22;38261;54.090;13.382;2023-02-28T05:54:14;-3.60;99.90
52321;DHT22;38261;54.090;13.382;2023-02-28T05:55:36;-3.60;99.90
52321;DHT22;38261;54.090;13.382;2023-02-28T05:56:59;-3.60;99.90
52321;DHT22;38261;54.090;13.382;2023-02-28T05:58:21;-3.60;99.90
52321;DHT22;38261;54.090;13.382;2023-02-28T05:59:43;-3.60;99.90
52321;DHT22;38261;54.090;13.382;2023-02-28T06:01:37;-3.60;99.90
52321;DHT22;38261;54.090;13.382;2023-02-28T06:03:00;-3.60;99.90
52321;DHT22;38261;54.090;13.382;2023-02-28T06:04:24;-3.60;99.90
52321;DHT22;38261;54.090;13.382;2023-02-28T06:05:53;-3.60;99.90
52321;DHT22;38261;54.090;13.382;2023-02-28T06:07:15;-3.60;99.90
52321;DHT22;38261;54.090;13.382;2023-02-28T06:08:39;-3.60;99.90
52321;DHT22;38261;54.090;13.382;2023-02-28T06:10:01;-3.50;99.90
52321;DHT22;38261;54.090;13.382;2023-02-28T06:11:23;-3.50;99.90
52321;DHT22;38261;54.090;13.382;2023-02-28T06:12:49;-3.50;99.90
52321;DHT22;38261;54.090;13.382;2023-02-28T06:14:15;-3.50;99.90
52321;DHT22;38261;54.090;13.382;2023-02-28T06:15:38;-3.50;99.90
52321;DHT22;38261;54.090;13.382;2023-02-28T06:17:01;-3.40;99.90
52321;DHT22;38261;54.090;13.382;2023-02-28T06:18:24;-3.40;99.90
52321;DHT22;38261;54.090;13.382;2023-02-28T06:19:46;-3.40;99.90
52321;DHT22;38261;54.090;13.382;2023-02-28T06:21:09;-3.40;99.90
52321;DHT22;38261;54.090;13.382;2023-02-28T06:22:31;-3.30;99.90
52321;DHT22;38261;54.090;13.382;2023-02-28T06:23:54;-3.30;99.90
52321;DHT22;38261;54.090;13.382;2023-02-28T06:25:17;-3.30;99.90
52321;DHT22;38261;54.090;13.382;2023-02-28T06:26:39;-3.20;99.90
52321;DHT22;38261;54.090;13.382;2023-02-28T06:28:01;-3.20;99.90
52321;DHT22;38261;54.090;13.382;2023-02-28T06:29:23;-3.20;99.90
52321;DHT22;38261;54.090;13.382;2023-02-28T06:30:45;-3.20;99.90
52321;DHT22;38261;54.090;13.382;2023-02-28T06:32:07;-3.10;99.90
52321;DHT22;38261;54.090;13.382;2023-02-28T06:33:29;-3.10;99.90
52321;DHT22;38261;54.090;13.382;2023-02-28T06:34:51;-3.00;99.90
52321;DHT22;38261;54.090;13.382;2023-02-28T06:36:15;-3.00;99.90
52321;DHT22;38261;54.090;13.382;2023-02-28T06:37:37;-3.00;99.90
52321;DHT22;38261;54.090;13.382;2023-02-28T06:39:02;-2.90;99.90
52321;DHT22;38261;54.090;13.382;2023-02-28T06:40:24;-2.90;99.90
52321;DHT22;38261;54.090;13.382;2023-02-28T06:41:47;-2.80;99.90
52321;DHT22;38261;54.090;13.382;2023-02-28T06:43:16;-2.80;99.90
52321;DHT22;38261;54.090;13.382;2023-02-28T06:44:38;-2.70;99.90
52321;DHT22;38261;54.090;13.382;2023-02-28T06:46:03;-2.70;99.90
52321;DHT22;38261;54.090;13.382;2023-02-28T06:47:25;-2.60;99.90
52321;DHT22;38261;54.090;13.382;2023-02-28T06:48:47;-2.60;99.90
52321;DHT22;38261;54.090;13.382;2023-02-28T06:50:11;-2.50;99.90
52321;DHT22;38261;54.090;13.382;2023-02-28T06:51:34;-2.50;99.90
52321;DHT22;38261;54.090;13.382;2023-02-28T06:52:56;-2.40;99.90
52321;DHT22;38261;54.090;13.382;2023-02-28T06:54:18;-2.40;99.90
52321;DHT22;38261;54.090;13.382;2023-02-28T06:55:40;-2.40;99.90
52321;DHT22;38261;54.090;13.382;2023-02-28T06:57:03;-2.30;99.90
52321;DHT22;38261;54.090;13.382;2023-02-28T06:58:25;-2.30;99.90
52321;DHT22;38261;54.090;13.382;2023-02-28T06:59:47;-2.30;99.90
52321;DHT22;38261;54.090;13.382;2023-02-28T07:01:10;-2.30;99.90
52321;DHT22;38261;54.090;13.382;2023-02-28T07:02:33;-2.20;99.90
52321;DHT22;38261;54.090;13.382;2023-02-28T07:03:55;-2.10;99.90
52321;DHT22;38261;54.090;13.382;2023-02-28T07:05:17;-2.10;99.90
52321;DHT22;38261;54.090;13.382;2023-02-28T07:06:39;-2.00;99.90
52321;DHT22;38261;54.090;13.382;2023-02-28T07:08:03;-1.90;99.90
52321;DHT22;38261;54.090;13.382;2023-02-28T07:09:26;-1.90;99.90
52321;DHT22;38261;54.090;13.382;2023-02-28T07:10:53;-1.80;99.90
52321;DHT22;38261;54.090;13.382;2023-02-28T07:12:16;-1.70;99.90
52321;DHT22;38261;54.090;13.382;2023-02-28T07:13:38;-1.60;99.90
52321;DHT22;38261;54.090;13.382;2023-02-28T07:15:00;-1.60;99.90
52321;DHT22;38261;54.090;13.382;2023-02-28T07:16:24;-1.50;99.90
52321;DHT22;38261;54.090;13.382;2023-02-28T07:17:46;-1.40;99.90
52321;DHT22;38261;54.090;13.382;2023-02-28T07:19:08;-1.30;99.90
52321;DHT22;38261;54.090;13.382;2023-02-28T07:20:31;-1.20;99.90
52321;DHT22;38261;54.090;13.382;2023-02-28T07:21:53;-1.10;99.90
52321;DHT22;38261;54.090;13.382;2023-02-28T07:23:16;-1.10;99.90
52321;DHT22;38261;54.090;13.382;2023-02-28T07:24:38;-1.00;99.90
52321;DHT22;38261;54.090;13.382;2023-02-28T07:26:00;-0.90;99.90
52321;DHT22;38261;54.090;13.382;2023-02-28T07:27:22;-0.80;99.90
52321;DHT22;38261;54.090;13.382;2023-02-28T07:28:48;-0.70;99.90
52321;DHT22;38261;54.090;13.382;2023-02-28T07:30:10;-0.70;99.90
52321;DHT22;38261;54.090;13.382;2023-02-28T07:31:33;-0.60;99.90
52321;DHT22;38261;54.090;13.382;2023-02-28T07:32:56;-0.50;99.90
52321;DHT22;38261;54.090;13.382;2023-02-28T07:34:18;-0.40;99.90
52321;DHT22;38261;54.090;13.382;2023-02-28T07:35:41;-0.40;99.90
52321;DHT22;38261;54.090;13.382;2023-02-28T07:37:03;-0.30;99.90
52321;DHT22;38261;54.090;13.382;2023-02-28T07:38:26;-0.30;99.90
52321;DHT22;38261;54.090;13.382;2023-02-28T07:39:48;-0.20;99.90
52321;DHT22;38261;54.090;13.382;2023-02-28T07:41:10;-0.10;99.90
52321;DHT22;38261;54.090;13.382;2023-02-28T07:42:32;-0.10;99.90
52321;DHT22;38261;54.090;13.382;2023-02-28T07:43:55;0.00;99.90
52321;DHT22;38261;54.090;13.382;2023-02-28T07:45:19;0.10;99.90
52321;DHT22;38261;54.090;13.382;2023-02-28T07:46:41;0.10;99.90
52321;DHT22;38261;54.090;13.382;2023-02-28T07:48:03;0.20;99.90
52321;DHT22;38261;54.090;13.382;2023-02-28T07:49:25;0.20;99.90
52321;DHT22;38261;54.090;13.382;2023-02-28T07:50:57;0.20;99.90
52321;DHT22;38261;54.090;13.382;2023-02-28T07:52:20;0.30;99.90
52321;DHT22;38261;54.090;13.382;2023-02-28T07:53:42;0.30;99.90
52321;DHT22;38261;54.090;13.382;2023-02-28T07:55:05;0.40;99.90
52321;DHT22;38261;54.090;13.382;2023-02-28T07:56:28;0.50;99.90
52321;DHT22;38261;54.090;13.382;2023-02-28T07:57:51;0.50;99.90
52321;DHT22;38261;54.090;13.382;2023-02-28T07:59:13;0.60;99.90
52321;DHT22;38261;54.090;13.382;2023-02-28T08:00:35;0.60;99.90
52321;DHT22;38261;54.090;13.382;2023-02-28T08:01:57;0.70;99.90
52321;DHT22;38261;54.090;13.382;2023-02-28T08:03:21;0.80;99.90
52321;DHT22;38261;54.090;13.382;2023-02-28T08:04:45;0.90;99.90
52321;DHT22;38261;54.090;13.382;2023-02-28T08:06:16;1.00;99.90
52321;DHT22;38261;54.090;13.382;2023-02-28T08:07:38;1.10;99.90
52321;DHT22;38261;54.090;13.382;2023-02-28T08:09:01;1.20;99.90
52321;DHT22;38261;54.090;13.382;2023-02-28T08:10:23;1.30;99.90
52321;DHT22;38261;54.090;13.382;2023-02-28T08:11:45;1.40;99.90
52321;DHT22;38261;54.090;13.382;2023-02-28T08:13:07;1.50;99.90
52321;DHT22;38261;54.090;13.382;2023-02-28T08:14:30;1.50;99.90
52321;DHT22;38261;54.090;13.382;2023-02-28T08:15:52;1.60;99.90
52321;DHT22;38261;54.090;13.382;2023-02-28T08:17:14;1.70;99.90
52321;DHT22;38261;54.090;13.382;2023-02-28T08:18:36;1.70;99.90
52321;DHT22;38261;54.090;13.382;2023-02-28T08:19:58;1.70;99.90
52321;DHT22;38261;54.090;13.382;2023-02-28T08:21:21;1.70;99.90
52321;DHT22;38261;54.090;13.382;2023-02-28T08:22:43;1.80;99.90
52321;DHT22;38261;54.090;13.382;2023-02-28T08:24:07;1.80;99.90
52321;DHT22;38261;54.090;13.382;2023-02-28T08:25:29;1.90;99.90
52321;DHT22;38261;54.090;13.382;2023-02-28T08:26:51;2.00;99.90
52321;DHT22;38261;54.090;13.382;2023-02-28T08:28:13;2.20;99.90
52321;DHT22;38261;54.090;13.382;2023-02-28T08:29:37;2.20;99.90
52321;DHT22;38261;54.090;13.382;2023-02-28T08:31:00;2.40;99.90
52321;DHT22;38261;54.090;13.382;2023-02-28T08:32:22;2.40;99.90
52321;DHT22;38261;54.090;13.382;2023-02-28T08:33:51;2.50;99.90
52321;DHT22;38261;54.090;13.382;2023-02-28T08:35:15;2.60;99.90
52321;DHT22;38261;54.090;13.382;2023-02-28T08:36:37;2.80;99.90
52321;DHT22;38261;54.090;13.382;2023-02-28T08:37:59;2.80;99.90
52321;DHT22;38261;54.090;13.382;2023-02-28T08:39:21;2.90;99.90
52321;DHT22;38261;54.090;13.382;2023-02-28T08:40:43;2.90;99.90
52321;DHT22;38261;54.090;13.382;2023-02-28T08:42:06;3.00;99.90
52321;DHT22;38261;54.090;13.382;2023-02-28T08:43:29;3.10;99.90
52321;DHT22;38261;54.090;13.382;2023-02-28T08:44:51;3.20;99.90
52321;DHT22;38261;54.090;13.382;2023-02-28T08:46:13;3.20;99.90
52321;DHT22;38261;54.090;13.382;2023-02-28T08:47:35;3.30;99.90
52321;DHT22;38261;54.090;13.382;2023-02-28T08:48:57;3.40;99.90
52321;DHT22;38261;54.090;13.382;2023-02-28T08:50:22;3.40;99.90
52321;DHT22;38261;54.090;13.382;2023-02-28T08:51:44;3.40;99.90
52321;DHT22;38261;54.090;13.382;2023-02-28T08:53:06;3.50;99.90
52321;DHT22;38261;54.090;13.382;2023-02-28T08:54:28;3.50;99.90
52321;DHT22;38261;54.090;13.382;2023-02-28T08:55:57;3.60;99.90
52321;DHT22;38261;54.090;13.382;2023-02-28T08:57:20;3.70;99.90
52321;DHT22;38261;54.090;13.382;2023-02-28T08:58:42;3.70;99.90
52321;DHT22;38261;54.090;13.382;2023-02-28T09:00:05;3.80;99.90
52321;DHT22;38261;54.090;13.382;2023-02-28T09:01:28;3.90;99.90
52321;DHT22;38261;54.090;13.382;2023-02-28T09:02:51;4.00;99.90
52321;DHT22;38261;54.090;13.382;2023-02-28T09:04:13;4.10;99.90
52321;DHT22;38261;54.090;13.382;2023-02-28T09:05:40;4.20;99.90
52321;DHT22;38261;54.090;13.382;2023-02-28T09:07:02;4.20;99.90
52321;DHT22;38261;54.090;13.382;2023-02-28T09:08:26;4.20;99.90
52321;DHT22;38261;54.090;13.382;2023-02-28T09:09:48;4.30;99.90
52321;DHT22;38261;54.090;13.382;2023-02-28T09:11:16;4.50;99.90
52321;DHT22;38261;54.090;13.382;2023-02-28T09:12:40;4.40;99.90
52321;DHT22;38261;54.090;13.382;2023-02-28T09:14:03;4.50;99.90
52321;DHT22;38261;54.090;13.382;2023-02-28T09:15:25;4.60;99.90
52321;DHT22;38261;54.090;13.382;2023-02-28T09:16:48;4.70;99.90
52321;DHT22;38261;54.090;13.382;2023-02-28T09:18:10;4.70;99.90
52321;DHT22;38261;54.090;13.382;2023-02-28T09:19:33;4.70;99.90
52321;DHT22;38261;54.090;13.382;2023-02-28T09:20:55;4.80;99.90
52321;DHT22;38261;54.090;13.382;2023-02-28T09:22:17;4.80;99.90
52321;DHT22;38261;54.090;13.382;2023-02-28T09:23:41;4.80;99.90
52321;DHT22;38261;54.090;13.382;2023-02-28T09:25:03;4.70;99.90
52321;DHT22;38261;54.090;13.382;2023-02-28T09:26:27;4.80;99.90
52321;DHT22;38261;54.090;13.382;2023-02-28T09:28:03;4.80;99.90